createdAt,value
2023-03-27T00:01:22.351Z,97859.91
2023-03-27T00:03:50.598Z,97861.13
2023-03-27T00:06:19.835Z,97870.91
2023-03-27T00:08:50.971Z,97875.13
2023-03-27T00:11:19.664Z,97884.94
2023-03-27T00:13:50.435Z,97884.47
2023-03-27T00:16:26.476Z,97897.44
2023-03-27T00:18:55.215Z,97897.88
2023-03-27T00:21:22.975Z,97893.00
2023-03-27T00:23:49.786Z,97900.25
2023-03-27T00:26:16.293Z,97903.19
2023-03-27T00:28:42.877Z,97905.50
2023-03-27T00:31:15.615Z,97913.59
2023-03-27T00:33:42.963Z,97909.28
2023-03-27T00:36:10.707Z,97924.38
2023-03-27T00:38:39.387Z,97930.53
2023-03-27T00:41:06.498Z,97930.13
2023-03-27T00:43:35.824Z,97931.00
2023-03-27T00:46:22.054Z,97933.69
2023-03-27T00:48:52.486Z,97936.44
2023-03-27T00:51:24.446Z,97940.88
2023-03-27T00:53:52.789Z,97943.41
2023-03-27T00:56:20.005Z,97946.22
2023-03-27T00:58:55.878Z,97945.97
2023-03-27T01:01:27.881Z,97947.19
2023-03-27T01:03:59.485Z,97949.72
2023-03-27T01:06:26.577Z,97950.41
2023-03-27T01:08:53.030Z,97946.88
2023-03-27T01:12:20.042Z,97959.44
2023-03-27T01:15:21.267Z,97974.25
2023-03-27T01:18:19.556Z,97973.47
2023-03-27T01:21:23.414Z,97979.00
2023-03-27T01:24:16.385Z,97987.50
2023-03-27T01:26:58.877Z,97985.47
2023-03-27T01:29:39.032Z,97986.66
2023-03-27T01:32:30.776Z,97996.22
2023-03-27T01:36:16.884Z,97999.59
2023-03-27T01:39:23.031Z,98008.41
2023-03-27T01:42:25.784Z,98013.22
2023-03-27T01:45:31.032Z,98021.81
2023-03-27T01:48:27.180Z,98021.81
2023-03-27T01:51:01.093Z,98027.94
2023-03-27T01:53:37.594Z,98027.22
2023-03-27T01:56:26.407Z,98036.94
2023-03-27T01:59:04.498Z,98029.69
2023-03-27T02:01:39.716Z,98033.34
2023-03-27T02:04:16.873Z,98041.09
2023-03-27T02:06:53.622Z,98043.47
2023-03-27T02:09:28.348Z,98054.84
2023-03-27T02:12:29.428Z,98063.78
2023-03-27T02:15:24.755Z,98071.75
2023-03-27T02:18:04.918Z,98078.91
2023-03-27T02:20:35.521Z,98075.13
2023-03-27T02:23:02.268Z,98077.91
2023-03-27T02:25:33.968Z,98084.38
2023-03-27T02:28:45.582Z,98084.00
2023-03-27T02:31:32.264Z,98089.88
2023-03-27T02:34:16.467Z,98101.00
2023-03-27T02:37:34.921Z,98093.91
2023-03-27T02:40:14.469Z,98105.88
2023-03-27T02:42:59.716Z,98105.00
2023-03-27T02:45:47.953Z,98107.72
2023-03-27T02:48:34.248Z,98116.41
2023-03-27T02:51:53.248Z,98119.09
2023-03-27T02:54:32.384Z,98127.88
2023-03-27T02:57:11.559Z,98125.28
2023-03-27T02:59:45.451Z,98129.91
2023-03-27T03:02:24.798Z,98127.34
2023-03-27T03:05:05.626Z,98139.72
2023-03-27T03:07:34.531Z,98149.72
2023-03-27T03:10:01.392Z,98149.59
2023-03-27T03:12:27.894Z,98150.63
2023-03-27T03:14:54.410Z,98162.69
2023-03-27T03:17:21.496Z,98158.31
2023-03-27T03:19:49.325Z,98155.72
2023-03-27T03:22:15.911Z,98165.41
2023-03-27T03:24:43.559Z,98172.59
2023-03-27T03:27:10.721Z,98168.41
2023-03-27T03:29:37.420Z,98174.81
2023-03-27T03:32:06.279Z,98193.91
2023-03-27T03:34:36.460Z,98189.72
2023-03-27T03:37:03.249Z,98193.19
2023-03-27T03:39:29.926Z,98195.88
2023-03-27T03:41:56.465Z,98204.00
2023-03-27T03:44:23.033Z,98209.31
2023-03-27T03:46:49.537Z,98208.69
2023-03-27T03:49:16.056Z,98219.25
2023-03-27T03:51:42.586Z,98213.16
2023-03-27T03:54:09.279Z,98218.31
2023-03-27T03:56:37.197Z,98221.56
2023-03-27T03:59:03.736Z,98220.44
2023-03-27T04:01:30.275Z,98237.66
2023-03-27T04:03:56.883Z,98239.47
2023-03-27T04:06:26.310Z,98247.34
2023-03-27T04:08:53.465Z,98253.78
2023-03-27T04:11:20.992Z,98252.94
2023-03-27T04:13:47.595Z,98259.78
2023-03-27T04:16:14.593Z,98257.63
2023-03-27T04:18:41.450Z,98268.44
2023-03-27T04:21:15.925Z,98270.34
2023-03-27T04:23:44.733Z,98281.84
2023-03-27T04:26:12.547Z,98281.94
2023-03-27T04:28:39.832Z,98291.63
2023-03-27T04:31:08.736Z,98294.88
2023-03-27T04:33:46.244Z,98296.72
2023-03-27T04:36:17.187Z,98299.09
2023-03-27T04:38:44.194Z,98308.69
2023-03-27T04:41:10.662Z,98320.38
2023-03-27T04:43:39.898Z,98319.81
2023-03-27T04:46:08.118Z,98325.00
2023-03-27T04:48:38.186Z,98324.06
2023-03-27T04:51:06.914Z,98328.72
2023-03-27T04:53:36.293Z,98322.06
2023-03-27T04:56:04.734Z,98327.38
2023-03-27T04:58:31.467Z,98340.13
2023-03-27T05:00:58.297Z,98342.63
2023-03-27T05:03:26.108Z,98340.66
2023-03-27T05:05:52.888Z,98342.06
2023-03-27T05:08:19.795Z,98346.91
2023-03-27T05:10:46.860Z,98351.28
2023-03-27T05:13:13.824Z,98359.75
2023-03-27T05:15:40.541Z,98359.53
2023-03-27T05:18:09.001Z,98358.56
2023-03-27T05:20:36.790Z,98364.50
2023-03-27T05:23:03.495Z,98368.00
2023-03-27T05:25:31.728Z,98373.00
2023-03-27T05:27:59.621Z,98370.38
2023-03-27T05:30:26.857Z,98373.81
2023-03-27T05:32:54.033Z,98380.09
2023-03-27T05:35:23.930Z,98386.25
2023-03-27T05:37:54.016Z,98382.25
2023-03-27T05:40:28.135Z,98387.47
2023-03-27T05:42:56.809Z,98394.53
2023-03-27T05:45:24.185Z,98394.41
2023-03-27T05:47:57.142Z,98396.25
2023-03-27T05:50:32.325Z,98404.97
2023-03-27T05:53:09.849Z,98404.66
2023-03-27T05:55:38.675Z,98408.97
2023-03-27T05:58:10.017Z,98414.91
2023-03-27T06:00:38.340Z,98418.44
2023-03-27T06:03:05.040Z,98419.38
2023-03-27T06:05:32.432Z,98423.41
2023-03-27T06:07:59.033Z,98426.63
2023-03-27T06:10:29.113Z,98429.19
2023-03-27T06:13:12.852Z,98441.84
2023-03-27T06:15:43.038Z,98438.09
2023-03-27T06:18:10.941Z,98441.38
2023-03-27T06:20:39.032Z,98454.31
2023-03-27T06:23:06.460Z,98451.94
2023-03-27T06:25:35.665Z,98458.66
2023-03-27T06:28:06.952Z,98460.13
2023-03-27T06:30:33.735Z,98466.16
2023-03-27T06:33:00.753Z,98465.22
2023-03-27T06:35:31.015Z,98469.19
2023-03-27T06:38:03.363Z,98470.66
2023-03-27T06:40:32.476Z,98469.88
2023-03-27T06:43:02.655Z,98480.84
2023-03-27T06:45:33.282Z,98476.84
2023-03-27T06:48:13.572Z,98485.50
2023-03-27T06:50:47.048Z,98479.47
2023-03-27T06:53:26.642Z,98492.09
2023-03-27T06:55:54.674Z,98496.09
2023-03-27T06:58:21.732Z,98489.75
2023-03-27T07:00:50.136Z,98502.47
2023-03-27T07:03:21.355Z,98508.22
2023-03-27T07:05:48.929Z,98502.09
2023-03-27T07:08:24.515Z,98509.06
2023-03-27T07:11:07.897Z,98520.19
2023-03-27T07:13:38.308Z,98511.22
2023-03-27T07:16:05.586Z,98524.22
2023-03-27T07:18:32.435Z,98527.09
2023-03-27T07:20:59.208Z,98527.41
2023-03-27T07:23:26.977Z,98532.31
2023-03-27T07:26:01.274Z,98537.50
2023-03-27T07:28:28.196Z,98533.84
2023-03-27T07:30:54.971Z,98544.69
2023-03-27T07:33:22.054Z,98539.53
2023-03-27T07:35:48.831Z,98544.91
2023-03-27T07:38:16.480Z,98546.44
2023-03-27T07:40:46.603Z,98549.09
2023-03-27T07:43:13.675Z,98556.56
2023-03-27T07:45:41.891Z,98561.44
2023-03-27T07:48:16.614Z,98568.56
2023-03-27T07:50:45.038Z,98576.06
2023-03-27T07:53:32.461Z,98570.91
2023-03-27T07:56:01.428Z,98576.41
2023-03-27T07:58:28.038Z,98572.47
2023-03-27T08:01:01.828Z,98575.50
2023-03-27T08:03:30.975Z,98576.75
2023-03-27T08:06:00.576Z,98576.38
2023-03-27T08:08:28.550Z,98583.25
2023-03-27T08:10:57.548Z,98586.28
2023-03-27T08:13:24.591Z,98591.81
2023-03-27T08:15:52.807Z,98599.44
2023-03-27T08:18:19.476Z,98596.53
2023-03-27T08:20:47.816Z,98607.03
2023-03-27T08:23:14.285Z,98600.88
2023-03-27T08:25:42.456Z,98606.28
2023-03-27T08:28:08.919Z,98613.72
2023-03-27T08:30:36.009Z,98608.59
2023-03-27T08:33:03.665Z,98612.06
2023-03-27T08:35:30.453Z,98603.28
2023-03-27T08:37:57.282Z,98610.25
2023-03-27T08:40:29.488Z,98618.03
2023-03-27T08:43:06.973Z,98624.84
2023-03-27T08:46:03.586Z,98620.25
2023-03-27T08:49:08.450Z,98617.53
2023-03-27T08:51:44.047Z,98626.88
2023-03-27T08:54:21.460Z,98636.19
2023-03-27T08:56:49.620Z,98622.66
2023-03-27T08:59:21.180Z,98637.16
2023-03-27T09:02:13.468Z,98633.91
2023-03-27T09:04:56.722Z,98635.53
2023-03-27T09:07:43.488Z,98644.44
2023-03-27T09:10:24.931Z,98644.75
2023-03-27T09:13:18.310Z,98662.81
2023-03-27T09:16:03.021Z,98654.34
2023-03-27T09:18:44.066Z,98654.41
2023-03-27T09:21:19.710Z,98658.25
2023-03-27T09:23:47.581Z,98651.47
2023-03-27T09:26:19.943Z,98654.88
2023-03-27T09:28:53.852Z,98655.47
2023-03-27T09:31:34.967Z,98656.44
2023-03-27T09:34:11.349Z,98656.66
2023-03-27T09:36:38.632Z,98661.97
2023-03-27T09:39:21.930Z,98656.09
2023-03-27T09:41:57.915Z,98649.88
2023-03-27T09:44:30.063Z,98670.63
2023-03-27T09:47:23.059Z,98661.81
2023-03-27T09:50:13.385Z,98666.47
2023-03-27T09:52:41.588Z,98660.06
2023-03-27T09:55:34.186Z,98675.44
2023-03-27T09:58:27.758Z,98672.19
2023-03-27T10:01:13.774Z,98682.94
2023-03-27T10:03:50.009Z,98683.00
2023-03-27T10:06:36.188Z,98676.38
2023-03-27T10:09:19.599Z,98671.13
2023-03-27T10:11:50.353Z,98686.97
2023-03-27T10:14:21.362Z,98679.28
2023-03-27T10:16:48.329Z,98678.97
2023-03-27T10:19:30.697Z,98680.81
2023-03-27T10:22:09.125Z,98676.22
2023-03-27T10:24:45.487Z,98676.31
2023-03-27T10:27:29.893Z,98671.34
2023-03-27T10:29:57.484Z,98676.19
2023-03-27T10:32:47.596Z,98673.41
2023-03-27T10:35:37.000Z,98676.47
2023-03-27T10:38:14.044Z,98680.41
2023-03-27T10:40:47.398Z,98686.31
2023-03-27T10:43:32.432Z,98678.00
2023-03-27T10:46:05.681Z,98701.69
2023-03-27T10:48:48.277Z,98719.00
2023-03-27T10:51:46.075Z,98726.00
2023-03-27T10:54:36.790Z,98738.47
2023-03-27T10:57:13.689Z,98727.31
2023-03-27T11:00:13.619Z,98729.22
2023-03-27T11:02:49.323Z,98723.16
2023-03-27T11:05:31.309Z,98713.78
2023-03-27T11:08:15.808Z,98713.75
2023-03-27T11:10:46.145Z,98718.97
2023-03-27T11:13:38.164Z,98715.91
2023-03-27T11:16:34.374Z,98716.22
2023-03-27T11:19:09.604Z,98706.72
2023-03-27T11:21:53.335Z,98721.84
2023-03-27T11:24:49.624Z,98747.78
2023-03-27T11:27:52.037Z,98759.72
2023-03-27T11:30:48.187Z,98736.34
2023-03-27T11:33:44.299Z,98734.56
2023-03-27T11:36:29.800Z,98729.66
2023-03-27T11:39:17.416Z,98744.59
2023-03-27T11:41:55.990Z,98740.22
2023-03-27T11:44:25.706Z,98743.50
2023-03-27T11:47:19.167Z,98743.63
2023-03-27T11:50:01.932Z,98744.88
2023-03-27T11:52:57.868Z,98747.25
2023-03-27T11:55:53.732Z,98742.31
2023-03-27T11:58:52.417Z,98737.84
2023-03-27T12:01:33.046Z,98738.50
2023-03-27T12:04:32.955Z,98751.13
2023-03-27T12:07:42.111Z,98753.50
2023-03-27T12:13:42.027Z,98796.88
2023-03-27T12:16:47.844Z,98770.84
2023-03-27T12:19:46.446Z,98779.19
2023-03-27T12:22:57.237Z,98776.63
2023-03-27T12:26:04.795Z,98770.69
2023-03-27T12:28:53.197Z,98770.38
2023-03-27T12:31:41.730Z,98755.88
2023-03-27T12:34:41.933Z,98759.31
2023-03-27T12:37:13.542Z,98753.38
2023-03-27T12:40:00.566Z,98751.25
2023-03-27T12:42:51.853Z,98758.34
2023-03-27T12:45:26.903Z,98742.72
2023-03-27T12:48:11.480Z,98762.34
2023-03-27T12:50:58.748Z,98775.06
2023-03-27T12:53:25.414Z,98766.56
2023-03-27T12:56:13.161Z,98766.00
2023-03-27T12:58:41.280Z,98755.72
2023-03-27T13:01:12.483Z,98768.56
2023-03-27T13:04:09.569Z,98758.91
2023-03-27T13:07:28.194Z,98766.00
2023-03-27T13:10:12.917Z,98764.31
2023-03-27T13:13:17.074Z,98759.03
2023-03-27T13:16:12.497Z,98759.19
2023-03-27T13:19:07.633Z,98765.22
2023-03-27T13:22:20.295Z,98783.47
2023-03-27T13:25:32.504Z,98786.78
2023-03-27T13:28:36.420Z,98781.84
2023-03-27T13:31:07.680Z,98789.25
2023-03-27T13:33:35.818Z,98783.75
2023-03-27T13:36:19.338Z,98784.88
2023-03-27T13:38:52.373Z,98791.09
2023-03-27T13:41:43.764Z,98781.53
2023-03-27T13:44:30.286Z,98782.38
2023-03-27T13:47:19.924Z,98789.69
2023-03-27T13:50:14.674Z,98791.63
2023-03-27T13:53:12.586Z,98814.38
2023-03-27T13:56:14.706Z,98797.56
2023-03-27T13:58:53.014Z,98795.09
2023-03-27T14:01:49.684Z,98801.69
2023-03-27T14:05:12.765Z,98807.94
2023-03-27T14:08:05.944Z,98822.69
2023-03-27T14:11:10.753Z,98833.50
2023-03-27T14:14:17.096Z,98833.16
2023-03-27T14:17:21.660Z,98822.53
2023-03-27T14:20:22.464Z,98826.66
2023-03-27T14:23:16.530Z,98812.97
2023-03-27T14:25:54.573Z,98813.63
2023-03-27T14:28:54.886Z,98808.59
2023-03-27T14:31:23.882Z,98810.69
2023-03-27T14:34:03.223Z,98811.00
2023-03-27T14:36:34.026Z,98825.47
2023-03-27T14:39:08.286Z,98826.91
2023-03-27T14:41:34.884Z,98828.97
2023-03-27T14:44:04.347Z,98832.66
2023-03-27T14:46:31.334Z,98838.63
2023-03-27T14:48:59.957Z,98823.06
2023-03-27T14:51:41.913Z,98831.00
2023-03-27T14:54:27.236Z,98832.25
2023-03-27T14:56:59.893Z,98837.09
2023-03-27T14:59:36.529Z,98868.25
2023-03-27T15:02:19.224Z,98853.13
2023-03-27T15:04:46.139Z,98867.81
2023-03-27T15:07:33.952Z,98862.50
2023-03-27T15:10:06.191Z,98854.59
2023-03-27T15:12:34.258Z,98855.59
2023-03-27T15:15:00.727Z,98860.63
2023-03-27T15:17:34.494Z,98865.25
2023-03-27T15:20:14.287Z,98872.84
2023-03-27T15:22:48.774Z,98861.78
2023-03-27T15:25:33.019Z,98865.13
2023-03-27T15:28:07.009Z,98862.09
2023-03-27T15:30:43.905Z,98849.16
2023-03-27T15:33:21.893Z,98848.44
2023-03-27T15:35:56.111Z,98853.88
2023-03-27T15:38:30.339Z,98857.72
2023-03-27T15:41:17.033Z,98845.88
2023-03-27T15:43:44.132Z,98852.41
2023-03-27T15:46:18.259Z,98851.56
2023-03-27T15:48:50.690Z,98832.47
2023-03-27T15:51:19.910Z,98842.03
2023-03-27T15:53:58.948Z,98853.72
2023-03-27T15:56:41.160Z,98863.03
2023-03-27T15:59:12.829Z,98861.34
2023-03-27T16:01:43.908Z,98866.84
2023-03-27T16:04:17.894Z,98864.47
2023-03-27T16:06:51.073Z,98875.31
2023-03-27T16:09:32.741Z,98885.59
2023-03-27T16:11:59.655Z,98874.97
2023-03-27T16:14:32.719Z,98875.81
2023-03-27T16:17:19.686Z,98880.94
2023-03-27T16:19:57.966Z,98879.81
2023-03-27T16:22:33.502Z,98880.75
2023-03-27T16:25:02.829Z,98892.88
2023-03-27T16:27:54.147Z,98884.09
2023-03-27T16:30:34.302Z,98883.06
2023-03-27T16:33:01.412Z,98894.16
2023-03-27T16:35:31.821Z,98889.78
2023-03-27T16:37:58.533Z,98891.09
2023-03-27T16:40:25.237Z,98884.72
2023-03-27T16:42:51.678Z,98888.63
2023-03-27T16:45:18.180Z,98899.34
2023-03-27T16:47:46.838Z,98899.59
2023-03-27T16:50:24.336Z,98910.91
2023-03-27T16:52:51.137Z,98903.13
2023-03-27T16:55:17.625Z,98908.81
2023-03-27T16:57:46.071Z,98912.25
2023-03-27T17:00:15.582Z,98921.66
2023-03-27T17:02:44.275Z,98911.41
2023-03-27T17:05:11.284Z,98921.72
2023-03-27T17:07:38.376Z,98930.38
2023-03-27T17:10:06.538Z,98927.31
2023-03-27T17:12:33.035Z,98939.34
2023-03-27T17:14:59.710Z,98947.56
2023-03-27T17:17:27.530Z,98950.19
2023-03-27T17:19:54.313Z,98951.75
2023-03-27T17:22:21.377Z,98950.13
2023-03-27T17:24:56.107Z,98954.34
2023-03-27T17:27:26.315Z,98951.50
2023-03-27T17:29:53.114Z,98960.63
2023-03-27T17:32:19.572Z,98957.38
2023-03-27T17:34:46.101Z,98963.75
2023-03-27T17:37:12.678Z,98982.84
2023-03-27T17:39:39.386Z,98988.69
2023-03-27T17:42:06.545Z,98980.28
2023-03-27T17:44:33.104Z,98968.81
2023-03-27T17:47:00.416Z,98966.53
2023-03-27T17:49:29.486Z,98959.59
2023-03-27T17:51:56.119Z,98959.47
2023-03-27T17:54:22.764Z,98968.47
2023-03-27T17:56:49.337Z,98961.59
2023-03-27T17:59:15.889Z,98970.81
2023-03-27T18:01:45.616Z,98971.34
2023-03-27T18:04:12.279Z,98978.16
2023-03-27T18:06:39.159Z,98985.16
2023-03-27T18:09:07.321Z,98991.06
2023-03-27T18:11:33.898Z,98997.06
2023-03-27T18:14:00.884Z,99004.91
2023-03-27T18:16:27.490Z,99014.16
2023-03-27T18:18:55.441Z,99015.66
2023-03-27T18:21:21.992Z,99022.84
2023-03-27T18:23:48.564Z,99032.69
2023-03-27T18:26:16.586Z,99018.59
2023-03-27T18:28:43.303Z,99027.13
2023-03-27T18:31:12.519Z,99028.28
2023-03-27T18:33:39.256Z,99031.59
2023-03-27T18:36:10.512Z,99035.88
2023-03-27T18:38:40.062Z,99034.81
2023-03-27T18:41:07.002Z,99033.22
2023-03-27T18:43:34.015Z,99038.44
2023-03-27T18:46:05.180Z,99040.50
2023-03-27T18:48:32.390Z,99047.41
2023-03-27T18:51:02.763Z,99047.88
2023-03-27T18:53:30.876Z,99055.59
2023-03-27T18:55:58.785Z,99052.97
2023-03-27T18:58:27.839Z,99047.88
2023-03-27T19:00:57.735Z,99058.66
2023-03-27T19:03:30.331Z,99058.16
2023-03-27T19:06:01.760Z,99053.91
2023-03-27T19:08:28.330Z,99063.38
2023-03-27T19:10:57.301Z,99057.00
2023-03-27T19:13:25.901Z,99069.25
2023-03-27T19:15:52.444Z,99067.66
2023-03-27T19:18:19.151Z,99069.34
2023-03-27T19:20:46.400Z,99066.47
2023-03-27T19:23:14.120Z,99079.63
2023-03-27T19:25:40.803Z,99080.72
2023-03-27T19:28:07.368Z,99085.44
2023-03-27T19:30:33.971Z,99086.34
2023-03-27T19:33:00.561Z,99090.91
2023-03-27T19:35:27.417Z,99088.50
2023-03-27T19:37:54.403Z,99091.09
2023-03-27T19:40:21.446Z,99101.50
2023-03-27T19:42:48.275Z,99098.19
2023-03-27T19:45:15.192Z,99102.78
2023-03-27T19:47:41.969Z,99107.91
2023-03-27T19:50:09.309Z,99111.47
2023-03-27T19:52:36.025Z,99116.41
2023-03-27T19:55:02.571Z,99115.44
2023-03-27T19:57:29.130Z,99124.06
2023-03-27T19:59:55.886Z,99114.91
2023-03-27T20:02:22.436Z,99120.88
2023-03-27T20:04:49.036Z,99116.69
2023-03-27T20:07:15.701Z,99113.47
2023-03-27T20:09:42.217Z,99115.16
2023-03-27T20:12:11.112Z,99120.50
2023-03-27T20:14:37.622Z,99126.13
2023-03-27T20:17:06.303Z,99131.22
2023-03-27T20:19:34.769Z,99136.44
2023-03-27T20:22:01.249Z,99129.84
2023-03-27T20:24:28.764Z,99133.53
2023-03-27T20:26:56.949Z,99129.06
2023-03-27T20:29:24.667Z,99133.53
2023-03-27T20:31:51.691Z,99130.91
2023-03-27T20:34:19.799Z,99126.63
2023-03-27T20:36:47.092Z,99128.38
2023-03-27T20:39:16.497Z,99135.34
2023-03-27T20:41:42.974Z,99133.69
2023-03-27T20:44:16.504Z,99137.50
2023-03-27T20:46:50.958Z,99139.53
2023-03-27T20:49:40.231Z,99144.16
2023-03-27T20:52:10.682Z,99145.03
2023-03-27T20:54:37.582Z,99142.31
2023-03-27T20:57:05.435Z,99145.03
2023-03-27T20:59:32.474Z,99150.69
2023-03-27T21:02:00.084Z,99138.53
2023-03-27T21:04:29.563Z,99142.19
2023-03-27T21:06:56.072Z,99145.00
2023-03-27T21:09:25.243Z,99140.66
2023-03-27T21:11:51.704Z,99148.38
2023-03-27T21:14:18.158Z,99145.66
2023-03-27T21:16:44.687Z,99154.06
2023-03-27T21:19:11.737Z,99152.03
2023-03-27T21:21:38.710Z,99153.06
2023-03-27T21:24:05.957Z,99152.47
2023-03-27T21:26:32.532Z,99150.69
2023-03-27T21:28:59.148Z,99144.97
2023-03-27T21:31:25.655Z,99151.38
2023-03-27T21:33:52.476Z,99154.78
2023-03-27T21:36:19.041Z,99153.03
2023-03-27T21:38:45.709Z,99153.31
2023-03-27T21:41:15.840Z,99146.56
2023-03-27T21:43:42.905Z,99153.59
2023-03-27T21:46:09.627Z,99149.41
2023-03-27T21:48:36.204Z,99153.72
2023-03-27T21:51:06.049Z,99159.00
2023-03-27T21:53:32.846Z,99159.97
2023-03-27T21:55:59.925Z,99170.53
2023-03-27T21:58:27.441Z,99165.31
2023-03-27T22:00:57.717Z,99172.34
2023-03-27T22:03:26.081Z,99169.75
2023-03-27T22:06:07.642Z,99174.94
2023-03-27T22:08:37.656Z,99179.59
2023-03-27T22:11:04.619Z,99175.38
2023-03-27T22:13:31.103Z,99181.50
2023-03-27T22:15:57.957Z,99173.81
2023-03-27T22:18:24.903Z,99191.25
2023-03-27T22:20:51.471Z,99182.78
2023-03-27T22:23:18.057Z,99185.50
2023-03-27T22:25:54.650Z,99191.72
2023-03-27T22:28:21.104Z,99199.47
2023-03-27T22:30:47.834Z,99198.88
2023-03-27T22:33:14.486Z,99199.63
2023-03-27T22:35:48.913Z,99204.91
2023-03-27T22:38:16.169Z,99213.66
2023-03-27T22:40:43.342Z,99207.66
2023-03-27T22:43:10.154Z,99212.00
2023-03-27T22:45:36.910Z,99213.00
2023-03-27T22:48:05.538Z,99216.34
2023-03-27T22:50:32.195Z,99221.47
2023-03-27T22:52:58.732Z,99218.88
2023-03-27T22:55:25.358Z,99216.16
2023-03-27T22:57:51.825Z,99218.84
2023-03-27T23:00:19.074Z,99224.84
2023-03-27T23:02:45.719Z,99221.41
2023-03-27T23:05:12.293Z,99222.41
2023-03-27T23:07:38.978Z,99233.84
2023-03-27T23:10:06.353Z,99235.66
2023-03-27T23:12:32.794Z,99237.66
2023-03-27T23:14:59.293Z,99241.94
2023-03-27T23:17:25.868Z,99249.69
2023-03-27T23:19:52.368Z,99253.19
2023-03-27T23:22:18.847Z,99253.22
2023-03-27T23:24:45.384Z,99251.53
2023-03-27T23:27:12.064Z,99254.88
2023-03-27T23:29:38.520Z,99251.66
2023-03-27T23:32:05.673Z,99261.19
2023-03-27T23:34:32.229Z,99259.44
2023-03-27T23:36:59.679Z,99260.44
2023-03-27T23:39:26.195Z,99266.53
2023-03-27T23:41:52.765Z,99263.34
2023-03-27T23:44:19.271Z,99270.34
2023-03-27T23:46:45.760Z,99266.13
2023-03-27T23:49:13.110Z,99274.81
2023-03-27T23:51:39.599Z,99276.53
2023-03-27T23:54:06.136Z,99278.38
2023-03-27T23:56:32.599Z,99283.59
2023-03-27T23:58:59.122Z,99282.00
